Date,TemperatureHighF,TemperatureAvgF,TemperatureLowF,DewpointHighF,DewpointAvgF,DewpointLowF,HumidityHigh,HumidityAvg,HumidityLow,PressureMaxIn,PressureMinIn,WindSpeedMaxMPH,WindSpeedAvgMPH,GustSpeedMaxMPH,PrecipitationSumIn
2013-3-1,75.3,58.7,46.8,56.9,50.7,44.7,93,77,46,30.45,30.21,7,1,7,0.00
2013-3-2,71.3,57.3,46.9,56.4,50.5,44.7,93,80,50,30.25,30.05,6,1,6,0.00
2013-3-3,68.9,56.2,47.9,54.1,49.4,44.6,92,79,47,30.13,30.02,10,1,10,0.00
2013-3-4,61.2,51.4,42.3,49.4,44.9,39.8,91,79,60,30.17,30.06,8,2,8,0.00
2013-3-5,65.7,52.0,40.4,47.1,43.0,38.3,93,74,45,30.09,29.87,12,2,12,0.06
2013-3-6,59.9,51.4,40.8,47.8,43.1,37.8,93,75,50,30.08,29.88,10,2,10,0.07
2013-3-7,62.4,49.1,39.0,46.9,41.7,35.1,93,78,38,30.01,29.85,8,1,8,0.28
2013-3-8,62.7,51.4,44.8,49.9,44.5,41.4,94,79,49,30.10,29.84,16,3,16,0.12
2013-3-9,69.5,53.0,39.5,45.9,41.9,37.2,93,70,36,30.32,30.09,9,2,9,0.00
2013-3-10,74.0,53.4,36.4,49.9,41.5,34.4,93,70,27,30.37,30.23,7,1,7,0.00
2013-3-11,76.0,54.0,38.1,51.9,44.4,36.3,94,75,32,30.28,30.09,7,1,7,0.00
2013-3-12,74.8,56.2,43.0,55.6,49.3,41.1,93,80,46,30.17,30.04,7,1,7,0.00
2013-3-13,79.9,58.5,42.5,57.5,50.2,40.6,93,77,44,30.18,30.03,7,1,7,0.00
2013-3-14,72.5,57.0,45.9,56.7,49.3,41.1,93,78,38,30.18,30.10,8,1,8,0.00
2013-3-15,72.7,54.9,41.8,54.4,47.9,39.8,93,80,38,30.15,30.05,6,1,6,0.00
2013-3-16,72.3,57.7,46.3,55.2,48.2,39.4,93,74,34,30.13,30.02,8,2,8,0.00
2013-3-17,70.9,54.7,41.0,49.5,43.3,38.6,93,69,34,30.17,30.03,8,1,8,0.00
2013-3-18,65.5,52.7,40.1,51.9,45.1,38.0,93,77,55,30.14,20.30,117,1,117,0.00
2013-3-19,70.7,54.8,44.1,50.8,46.0,38.4,93,75,36,30.14,30.07,9,1,9,0.10
2013-3-20,70.2,58.0,51.0,59.4,52.4,49.0,93,83,60,30.15,30.06,12,2,12,0.05
2013-3-21,68.2,55.2,45.2,51.1,44.5,40.6,86,69,41,30.15,30.00,9,2,9,0.00
2013-3-22,71.5,54.1,39.4,44.6,36.1,28.0,93,59,21,30.12,30.00,10,2,10,0.00
2013-3-23,72.5,54.0,38.7,46.5,37.7,26.0,91,61,23,30.16,30.02,8,1,8,0.00
2013-3-24,71.4,53.6,39.8,52.5,45.4,37.8,93,76,44,30.11,29.95,8,1,8,0.00
2013-3-25,62.9,51.0,40.4,50.4,44.5,38.5,93,79,59,30.04,29.95,10,2,10,0.00
2013-3-26,67.5,54.6,44.0,51.7,46.3,41.0,92,75,54,30.03,29.92,9,1,9,0.00
2013-3-27,68.3,57.6,46.9,56.2,50.8,44.4,92,79,59,30.02,29.94,9,2,9,0.00
2013-3-28,74.8,61.8,55.4,58.9,54.9,52.1,92,79,55,30.09,30.00,9,1,9,0.00
2013-3-29,79.6,62.0,49.5,57.9,53.5,47.3,93,76,45,30.10,29.97,8,1,8,0.00
2013-3-30,75.0,61.5,53.7,58.6,54.8,51.1,92,80,54,30.08,29.94,9,1,9,0.02
2013-3-31,73.5,61.3,51.8,58.4,52.8,49.8,93,76,47,30.07,29.98,14,2,14,0.10